Time;durP1;ratioP1;P1;durP2;ratioP2;P2;SDS_P1;SDS_P2;PMS_P1;PMS_P2;Temp;Humidity;BMP_temperature;BMP_pressure;BME280_temperature;BME280_humidity;BME280_pressure;Samples;Min_cycle;Max_cycle;Signal;HPM_P1;HPM_P2
2022/12/05 00:01:57;;;;;;;31.10;16.13;;;5.20;99.90;;;;;;5050420;28;20025;-81
2022/12/05 00:04:23;;;;;;;35.40;17.45;;;5.30;99.90;;;;;;5051613;28;20486;-77
2022/12/05 00:06:48;;;;;;;36.53;18.95;;;5.30;99.90;;;;;;5047644;28;20034;-82
2022/12/05 00:09:14;;;;;;;32.88;18.95;;;5.30;99.90;;;;;;5061462;28;20035;-81
2022/12/05 00:11:42;;;;;;;34.45;18.42;;;5.20;99.90;;;;;;5054507;28;20041;-80
2022/12/05 00:14:09;;;;;;;34.58;17.80;;;5.20;99.90;;;;;;5056517;28;20043;-80
2022/12/05 00:16:37;;;;;;;38.90;18.67;;;5.20;99.90;;;;;;5052951;28;20083;-79
2022/12/05 00:19:05;;;;;;;36.95;18.52;;;5.20;99.90;;;;;;5055650;28;20032;-79
2022/12/05 00:21:33;;;;;;;39.40;19.67;;;5.20;99.90;;;;;;5061121;28;20462;-80
2022/12/05 00:24:00;;;;;;;35.47;17.85;;;5.20;99.90;;;;;;5067194;28;20021;-82
2022/12/05 00:26:26;;;;;;;37.33;18.15;;;5.20;99.90;;;;;;5061863;28;20513;-79
2022/12/05 00:28:52;;;;;;;36.25;18.92;;;5.20;99.90;;;;;;5048833;28;20029;-81
2022/12/05 00:31:20;;;;;;;39.92;19.50;;;5.20;99.90;;;;;;5056824;28;20517;-81
2022/12/05 00:33:46;;;;;;;37.25;18.27;;;5.20;99.90;;;;;;5053222;28;20033;-82
2022/12/05 00:36:15;;;;;;;38.67;18.15;;;5.20;99.90;;;;;;5049020;28;20044;-79
2022/12/05 00:38:41;;;;;;;38.38;18.80;;;5.20;99.90;;;;;;5058963;28;20070;-80
2022/12/05 00:41:13;;;;;;;36.08;17.55;;;5.20;99.90;;;;;;5067854;28;20033;-81
2022/12/05 00:43:39;;;;;;;41.33;18.55;;;5.20;99.90;;;;;;5050638;28;20034;-81
2022/12/05 00:46:07;;;;;;;41.22;19.48;;;5.20;99.90;;;;;;5042682;28;20481;-80
2022/12/05 00:48:34;;;;;;;43.70;19.63;;;5.20;99.90;;;;;;5042495;28;20029;-81
2022/12/05 00:51:10;;;;;;;39.53;18.80;;;5.20;99.90;;;;;;5046199;28;20056;-82
2022/12/05 00:53:36;;;;;;;37.13;19.10;;;5.20;99.90;;;;;;5029180;28;20029;-79
2022/12/05 00:56:07;;;;;;;36.53;18.50;;;5.20;99.90;;;;;;5036617;28;20075;-82
2022/12/05 00:58:33;;;;;;;39.08;18.35;;;5.20;99.90;;;;;;5035388;28;20041;-81
2022/12/05 01:01:08;;;;;;;37.00;17.63;;;5.20;99.90;;;;;;5054186;28;20055;-80
2022/12/05 01:03:33;;;;;;;37.38;17.50;;;5.20;99.90;;;;;;5042604;28;20037;-83
2022/12/05 01:05:59;;;;;;;40.38;18.13;;;5.20;99.90;;;;;;5039527;28;20032;-82
2022/12/05 01:08:25;;;;;;;41.50;20.42;;;5.20;99.90;;;;;;5048502;28;20427;-80
2022/12/05 01:10:55;;;;;;;39.00;18.80;;;5.20;99.90;;;;;;5063248;28;20074;-80
2022/12/05 01:13:22;;;;;;;37.67;17.98;;;5.20;99.90;;;;;;5046414;28;20036;-79
2022/12/05 01:15:48;;;;;;;39.00;19.75;;;5.20;99.90;;;;;;5050957;28;20137;-79
2022/12/05 01:18:13;;;;;;;40.50;18.92;;;5.20;99.90;;;;;;5038723;28;20034;-81
2022/12/05 01:20:40;;;;;;;44.28;19.98;;;5.20;99.90;;;;;;5041641;28;20472;-82
2022/12/05 01:23:06;;;;;;;40.58;18.63;;;5.20;99.90;;;;;;5043817;28;20024;-79
2022/12/05 01:25:31;;;;;;;39.13;19.75;;;5.20;99.90;;;;;;5048397;28;20085;-81
2022/12/05 01:27:57;;;;;;;44.13;19.85;;;5.20;99.90;;;;;;5054539;28;20032;-81
2022/12/05 01:30:23;;;;;;;38.72;19.20;;;5.20;99.90;;;;;;5058098;28;20126;-80
2022/12/05 01:32:48;;;;;;;40.65;19.40;;;5.20;99.90;;;;;;5044889;28;20029;-76
2022/12/05 01:35:14;;;;;;;43.88;19.83;;;5.20;99.90;;;;;;5050678;28;20036;-82
2022/12/05 01:37:40;;;;;;;44.88;20.02;;;5.30;99.90;;;;;;5060992;28;20091;-80
2022/12/05 01:40:07;;;;;;;40.08;19.48;;;5.30;99.90;;;;;;5050196;28;20089;-81
2022/12/05 01:42:33;;;;;;;42.70;20.10;;;5.30;99.90;;;;;;5063153;28;20054;-78
2022/12/05 01:45:03;;;;;;;46.38;20.20;;;5.30;99.90;;;;;;5057207;28;20033;-82
2022/12/05 01:47:31;;;;;;;41.67;19.33;;;5.20;99.90;;;;;;5059041;28;20056;-81
2022/12/05 01:49:58;;;;;;;45.67;20.48;;;5.30;99.90;;;;;;5035417;28;20043;-78
2022/12/05 01:52:26;;;;;;;42.67;20.10;;;5.30;99.90;;;;;;5063873;28;20020;-80
2022/12/05 01:54:58;;;;;;;46.03;20.33;;;5.30;99.90;;;;;;5044312;28;20048;-80
2022/12/05 01:57:24;;;;;;;45.35;20.17;;;5.30;99.90;;;;;;5046510;28;20093;-80
2022/12/05 01:59:57;;;;;;;44.08;19.77;;;5.20;99.90;;;;;;5038880;28;20064;-78
2022/12/05 02:02:23;;;;;;;48.15;20.95;;;5.20;99.90;;;;;;5032348;28;20395;-80
2022/12/05 02:05:03;;;;;;;46.17;20.55;;;5.30;99.90;;;;;;5072962;28;20463;-80
2022/12/05 02:07:29;;;;;;;39.28;19.95;;;5.30;99.90;;;;;;5034596;28;20152;-80
2022/12/05 02:09:55;;;;;;;43.22;20.23;;;5.30;99.90;;;;;;5056251;28;20066;-81
2022/12/05 02:12:22;;;;;;;43.78;20.30;;;5.30;99.90;;;;;;5044355;28;20374;-77
2022/12/05 02:15:06;;;;;;;47.67;20.48;;;5.30;99.90;;;;;;5048799;28;20038;-81
2022/12/05 02:17:47;;;;;;;48.97;19.85;;;5.30;99.90;;;;;;5049236;28;20042;-81
2022/12/05 02:20:37;;;;;;;52.58;22.17;;;5.30;99.90;;;;;;5047273;28;20037;-79
2022/12/05 02:23:36;;;;;;;48.95;20.98;;;5.30;99.90;;;;;;5053763;28;20028;-83
2022/12/05 02:26:27;;;;;;;50.05;21.30;;;5.30;99.90;;;;;;5050571;28;20028;-80
2022/12/05 02:29:20;;;;;;;47.95;20.45;;;5.30;99.90;;;;;;5041831;28;20039;-81
2022/12/05 02:32:16;;;;;;;45.50;20.65;;;5.30;99.90;;;;;;5049800;28;20118;-82
2022/12/05 02:35:16;;;;;;;47.45;20.77;;;5.20;99.90;;;;;;5054124;28;20039;-80
2022/12/05 02:38:08;;;;;;;50.08;20.95;;;5.30;99.90;;;;;;5055398;28;20578;-80
2022/12/05 02:40:55;;;;;;;54.67;22.27;;;5.30;99.90;;;;;;5053059;28;20599;-81
2022/12/05 02:43:39;;;;;;;53.60;21.50;;;5.30;99.90;;;;;;5039549;28;20026;-81
2022/12/05 02:46:12;;;;;;;52.53;22.88;;;5.30;99.90;;;;;;5047499;28;20483;-81
2022/12/05 02:48:39;;;;;;;48.03;22.05;;;5.30;99.90;;;;;;5049436;28;20034;-81
2022/12/05 02:51:08;;;;;;;51.58;21.40;;;5.30;99.90;;;;;;5040161;28;20037;-82
2022/12/05 02:53:37;;;;;;;49.40;20.75;;;5.30;99.90;;;;;;5036957;28;20040;-81
2022/12/05 02:56:04;;;;;;;56.15;22.23;;;5.30;99.90;;;;;;5043071;28;20041;-79
2022/12/05 02:58:37;;;;;;;53.45;23.80;;;5.30;99.90;;;;;;5030282;28;20045;-81
2022/12/05 03:01:03;;;;;;;45.80;21.60;;;5.30;99.90;;;;;;5033893;28;20518;-82
2022/12/05 03:03:30;;;;;;;50.92;22.52;;;5.30;99.90;;;;;;5050827;28;20032;-82
2022/12/05 03:06:08;;;;;;;50.70;23.88;;;5.30;99.90;;;;;;5051140;28;20041;-81
2022/12/05 03:08:43;;;;;;;55.67;22.80;;;5.30;99.90;;;;;;5049874;28;20369;-80
2022/12/05 03:11:09;;;;;;;50.83;21.95;;;5.30;99.90;;;;;;5046385;28;20060;-83
2022/12/05 03:13:43;;;;;;;55.20;23.10;;;5.30;99.90;;;;;;5041543;28;20106;-80
2022/12/05 03:16:36;;;;;;;49.80;22.92;;;5.40;99.90;;;;;;5055985;28;20066;-78
2022/12/05 03:19:08;;;;;;;48.15;22.85;;;5.30;99.90;;;;;;5050724;28;20128;-79
2022/12/05 03:21:42;;;;;;;51.80;23.77;;;5.40;99.90;;;;;;5042023;28;20032;-80
2022/12/05 03:24:12;;;;;;;48.55;22.33;;;5.40;99.90;;;;;;5044132;28;20033;-82
2022/12/05 03:27:07;;;;;;;51.90;23.25;;;5.40;99.90;;;;;;5052543;28;20127;-79
2022/12/05 03:30:01;;;;;;;53.30;23.40;;;5.40;99.90;;;;;;5047036;28;20067;-81
2022/12/05 03:32:55;;;;;;;55.75;24.73;;;5.40;99.90;;;;;;5037550;28;20048;-83
2022/12/05 03:35:53;;;;;;;50.80;22.83;;;5.40;99.90;;;;;;5033990;28;20029;-82
2022/12/05 03:38:56;;;;;;;48.67;21.85;;;5.40;99.90;;;;;;5032673;28;20435;-81
2022/12/05 03:41:31;;;;;;;51.08;24.05;;;5.40;99.90;;;;;;5046941;28;20161;-81
2022/12/05 03:44:15;;;;;;;52.47;23.60;;;5.40;99.90;;;;;;5069396;28;20063;-77
2022/12/05 03:46:47;;;;;;;58.28;24.70;;;5.40;99.90;;;;;;5048741;28;20040;-81
2022/12/05 03:49:40;;;;;;;54.88;25.17;;;5.40;99.90;;;;;;5045806;28;20391;-80
2022/12/05 03:52:26;;;;;;;55.83;25.17;;;5.40;99.90;;;;;;5039698;28;20120;-80
2022/12/05 03:54:59;;;;;;;58.53;24.90;;;5.40;99.90;;;;;;5048947;28;20119;-81
2022/12/05 03:57:27;;;;;;;52.78;23.83;;;5.40;99.90;;;;;;5046337;28;20028;-81
2022/12/05 03:59:56;;;;;;;53.50;25.27;;;5.40;99.90;;;;;;5057722;28;20214;-81
2022/12/05 04:02:26;;;;;;;56.22;25.40;;;5.40;99.90;;;;;;5052726;28;20490;-79
2022/12/05 04:05:01;;;;;;;54.42;24.38;;;5.40;99.90;;;;;;5047736;28;20036;-80
2022/12/05 04:07:30;;;;;;;55.80;24.92;;;5.40;99.90;;;;;;5040310;28;20449;-80
2022/12/05 04:09:58;;;;;;;54.80;24.80;;;5.40;99.90;;;;;;5045504;28;20471;-79
2022/12/05 04:12:28;;;;;;;56.35;24.70;;;5.40;99.90;;;;;;5037154;28;20040;-80
2022/12/05 04:14:58;;;;;;;55.70;25.20;;;5.40;99.90;;;;;;5051309;28;20127;-81
2022/12/05 04:17:37;;;;;;;51.05;24.02;;;5.50;99.90;;;;;;5047063;28;20040;-80
2022/12/05 04:22:57;;;;;;;58.03;26.30;;;5.50;99.90;;;;;;5067981;28;20791;-81
2022/12/05 04:25:32;;;;;;;56.95;24.75;;;5.50;99.90;;;;;;5063627;28;20078;-81
2022/12/05 04:28:21;;;;;;;55.25;24.63;;;5.50;99.90;;;;;;5050558;28;20114;-80
2022/12/05 04:31:08;;;;;;;59.17;25.80;;;5.50;99.90;;;;;;5052370;28;20033;-82
2022/12/05 04:33:54;;;;;;;58.08;25.88;;;5.50;99.90;;;;;;5034992;28;20036;-81
2022/12/05 04:36:22;;;;;;;57.42;24.73;;;5.50;99.90;;;;;;5056514;28;20405;-81
2022/12/05 04:38:58;;;;;;;55.30;24.58;;;5.40;99.90;;;;;;5049887;28;20081;-81
2022/12/05 04:41:35;;;;;;;58.92;25.10;;;5.50;99.90;;;;;;5044291;28;20114;-78
2022/12/05 04:44:05;;;;;;;57.08;25.83;;;5.50;99.90;;;;;;5045650;28;20415;-80
2022/12/05 04:46:34;;;;;;;57.83;26.75;;;5.50;99.90;;;;;;5053347;28;20159;-81
2022/12/05 04:49:04;;;;;;;59.22;27.58;;;5.50;99.90;;;;;;5058884;28;20024;-81
2022/12/05 04:51:33;;;;;;;59.70;25.95;;;5.50;99.90;;;;;;5053965;28;20391;-80
2022/12/05 04:54:10;;;;;;;64.03;28.05;;;5.50;99.90;;;;;;5062056;28;20416;-80
2022/12/05 04:56:38;;;;;;;57.45;27.05;;;5.50;99.90;;;;;;5048627;28;20499;-78
2022/12/05 04:59:04;;;;;;;56.47;26.17;;;5.50;99.90;;;;;;5046942;28;20029;-81
2022/12/05 05:01:36;;;;;;;61.92;26.88;;;5.50;99.90;;;;;;5061869;28;20034;-78
2022/12/05 05:04:08;;;;;;;52.55;26.75;;;5.50;99.90;;;;;;5047737;28;20424;-81
2022/12/05 05:06:37;;;;;;;55.85;25.95;;;5.50;99.90;;;;;;5045627;28;20047;-81
2022/12/05 05:09:03;;;;;;;56.78;26.77;;;5.50;99.90;;;;;;5050127;28;20024;-82
2022/12/05 05:11:32;;;;;;;61.50;27.83;;;5.50;99.90;;;;;;5054982;28;20116;-81
2022/12/05 05:13:58;;;;;;;59.83;28.27;;;5.50;99.90;;;;;;5063517;28;20086;-82
2022/12/05 05:16:30;;;;;;;60.80;27.25;;;5.50;99.90;;;;;;5044516;28;20037;-78
2022/12/05 05:18:56;;;;;;;55.50;27.45;;;5.50;99.90;;;;;;5046312;28;20086;-81
2022/12/05 05:21:33;;;;;;;56.33;27.15;;;5.60;99.90;;;;;;5049573;28;20032;-80
2022/12/05 05:23:59;;;;;;;63.72;27.65;;;5.60;99.90;;;;;;5042005;28;20090;-78
2022/12/05 05:26:26;;;;;;;57.17;27.63;;;5.50;99.90;;;;;;5039279;28;20040;-79
2022/12/05 05:28:52;;;;;;;59.25;26.95;;;5.50;99.90;;;;;;5043529;28;20720;-82
2022/12/05 05:31:18;;;;;;;56.47;27.38;;;5.60;99.90;;;;;;5047270;28;20551;-81
2022/12/05 05:33:47;;;;;;;55.88;27.65;;;5.60;99.90;;;;;;5034581;28;20030;-81
2022/12/05 05:36:13;;;;;;;54.27;27.17;;;5.60;99.90;;;;;;5041623;28;21536;-82
2022/12/05 05:38:41;;;;;;;55.65;26.77;;;5.60;99.90;;;;;;5042406;28;20036;-80
2022/12/05 05:41:16;;;;;;;56.67;26.67;;;5.60;99.90;;;;;;5047518;28;20032;-81
2022/12/05 05:43:42;;;;;;;59.85;28.23;;;5.60;99.90;;;;;;5055157;28;20043;-81
2022/12/05 05:46:09;;;;;;;50.17;26.60;;;5.60;99.90;;;;;;5055824;28;20025;-78
2022/12/05 05:48:34;;;;;;;56.30;26.65;;;5.60;99.90;;;;;;5045809;28;20049;-78
2022/12/05 05:51:05;;;;;;;52.92;26.67;;;5.60;99.90;;;;;;5062537;28;20032;-80
2022/12/05 05:53:31;;;;;;;53.33;26.33;;;5.60;99.90;;;;;;5043160;28;20025;-82
2022/12/05 05:55:57;;;;;;;48.13;25.20;;;5.60;99.90;;;;;;5058269;28;20151;-79
2022/12/05 05:58:22;;;;;;;48.83;25.90;;;5.60;99.90;;;;;;5041374;28;20434;-80
2022/12/05 06:00:48;;;;;;;47.53;25.23;;;5.60;99.90;;;;;;5061105;28;20575;-82
2022/12/05 06:03:13;;;;;;;51.67;24.75;;;5.60;99.90;;;;;;5052850;28;20051;-80
2022/12/05 06:05:39;;;;;;;49.38;25.67;;;5.60;99.90;;;;;;5032233;28;20582;-81
2022/12/05 06:08:05;;;;;;;51.08;26.58;;;5.60;99.90;;;;;;5067781;28;20037;-80
2022/12/05 06:10:31;;;;;;;53.95;26.75;;;5.60;99.90;;;;;;5050359;28;20029;-81
2022/12/05 06:12:58;;;;;;;48.30;24.42;;;5.70;99.90;;;;;;5045768;28;20035;-79
2022/12/05 06:15:24;;;;;;;52.42;27.27;;;5.60;99.90;;;;;;5039232;28;20029;-80
2022/12/05 06:17:49;;;;;;;49.42;26.33;;;5.60;99.90;;;;;;5053327;28;20037;-79
2022/12/05 06:20:15;;;;;;;48.95;26.13;;;5.70;99.90;;;;;;5038687;28;20033;-77
2022/12/05 06:22:41;;;;;;;50.00;25.67;;;5.70;99.90;;;;;;5047334;28;20432;-81
2022/12/05 06:25:07;;;;;;;45.95;24.55;;;5.70;99.90;;;;;;5056883;28;20040;-79
2022/12/05 06:27:32;;;;;;;52.58;27.13;;;5.70;99.90;;;;;;5043081;28;20040;-80
2022/12/05 06:29:58;;;;;;;49.67;25.80;;;5.70;99.90;;;;;;5045937;28;20044;-82
2022/12/05 06:32:24;;;;;;;50.42;25.30;;;5.70;99.90;;;;;;5045505;28;20063;-80
2022/12/05 06:34:50;;;;;;;46.15;25.48;;;5.70;99.90;;;;;;5063106;28;20032;-82
2022/12/05 06:37:15;;;;;;;52.67;24.95;;;5.70;99.90;;;;;;5046432;28;20096;-79
2022/12/05 06:39:41;;;;;;;51.08;25.58;;;5.70;99.90;;;;;;5046844;28;20103;-83
2022/12/05 06:42:07;;;;;;;45.47;24.48;;;5.70;99.90;;;;;;5045766;28;20388;-81
2022/12/05 06:44:32;;;;;;;47.90;23.70;;;5.70;99.90;;;;;;5028699;28;20100;-80
2022/12/05 06:46:58;;;;;;;52.35;25.10;;;5.80;99.90;;;;;;5062368;28;20570;-81
2022/12/05 06:49:25;;;;;;;47.78;25.67;;;5.70;99.90;;;;;;5033406;28;20032;-78
2022/12/05 06:51:52;;;;;;;50.30;24.13;;;5.70;99.90;;;;;;5040400;28;20364;-82
2022/12/05 06:54:18;;;;;;;47.05;24.17;;;5.70;99.90;;;;;;5044286;28;20037;-79
2022/12/05 06:56:44;;;;;;;49.90;25.90;;;5.70;99.90;;;;;;5071673;28;20194;-81
2022/12/05 06:59:09;;;;;;;44.22;24.40;;;5.70;99.90;;;;;;5040368;28;20037;-81
2022/12/05 07:01:38;;;;;;;49.83;25.25;;;5.70;99.90;;;;;;5039262;28;20029;-81
2022/12/05 07:04:23;;;;;;;46.88;24.83;;;5.80;99.90;;;;;;5051173;28;20029;-82
2022/12/05 07:06:51;;;;;;;52.72;25.67;;;5.80;99.90;;;;;;5057881;28;20052;-81
2022/12/05 07:09:44;;;;;;;46.97;25.08;;;5.70;99.90;;;;;;5055656;28;20024;-80
2022/12/05 07:12:08;;;;;;;44.15;25.35;;;5.80;99.90;;;;;;5038814;28;20037;-82
2022/12/05 07:14:33;;;;;;;42.97;23.92;;;5.80;99.90;;;;;;5042619;28;20511;-81
2022/12/05 07:16:59;;;;;;;43.17;23.55;;;5.80;99.90;;;;;;5033016;28;20120;-82
2022/12/05 07:19:25;;;;;;;45.03;23.27;;;5.80;99.90;;;;;;5045986;28;20388;-82
2022/12/05 07:21:50;;;;;;;40.45;22.00;;;5.80;99.90;;;;;;5048743;28;20041;-83
2022/12/05 07:24:16;;;;;;;46.03;23.80;;;5.80;99.90;;;;;;5039850;28;20089;-81
2022/12/05 07:26:41;;;;;;;44.45;24.05;;;5.80;99.90;;;;;;5038997;28;20032;-83
2022/12/05 07:29:07;;;;;;;48.35;23.70;;;5.80;99.90;;;;;;5035072;28;20046;-82
2022/12/05 07:31:32;;;;;;;43.65;22.50;;;5.80;99.90;;;;;;5042730;28;20044;-81
2022/12/05 07:33:58;;;;;;;47.30;23.83;;;5.80;99.90;;;;;;5048810;28;20510;-83
2022/12/05 07:36:24;;;;;;;45.03;23.92;;;5.80;99.90;;;;;;5043277;28;20044;-82
2022/12/05 07:38:57;;;;;;;46.42;25.10;;;5.80;99.90;;;;;;5032285;28;20068;-80
2022/12/05 07:41:25;;;;;;;48.17;23.45;;;5.80;99.90;;;;;;5033226;28;20124;-81
2022/12/05 07:43:55;;;;;;;41.50;22.90;;;5.80;99.90;;;;;;5038903;28;20021;-80
2022/12/05 07:46:22;;;;;;;42.47;23.13;;;5.80;99.90;;;;;;5034987;28;20411;-82
2022/12/05 07:48:49;;;;;;;45.55;22.52;;;5.80;99.90;;;;;;5054485;28;20565;-80
2022/12/05 07:51:15;;;;;;;43.88;21.40;;;5.80;99.90;;;;;;5036130;28;20021;-81
2022/12/05 07:53:42;;;;;;;42.80;22.50;;;5.80;99.90;;;;;;5048942;28;20025;-80
2022/12/05 07:56:10;;;;;;;39.92;21.73;;;5.90;99.90;;;;;;5048608;28;20294;-80
2022/12/05 07:58:37;;;;;;;42.67;22.58;;;5.90;99.90;;;;;;5051787;28;20119;-84
2022/12/05 08:01:12;;;;;;;42.22;22.35;;;5.90;99.90;;;;;;5029618;28;20025;-82
2022/12/05 08:03:38;;;;;;;34.50;20.80;;;5.90;99.90;;;;;;5045935;28;20025;-82
2022/12/05 08:06:16;;;;;;;40.90;22.77;;;5.90;99.90;;;;;;5037626;28;20029;-82
2022/12/05 08:08:42;;;;;;;40.63;22.38;;;5.90;99.90;;;;;;5036243;28;20103;-79
2022/12/05 08:11:10;;;;;;;43.03;21.63;;;5.90;99.90;;;;;;5035438;28;20083;-83
2022/12/05 08:13:36;;;;;;;42.35;22.48;;;6.00;99.90;;;;;;5047739;28;20021;-82
2022/12/05 08:16:05;;;;;;;45.58;21.73;;;6.00;99.90;;;;;;5050700;28;20047;-83
2022/12/05 08:18:31;;;;;;;37.50;20.88;;;6.00;99.90;;;;;;5047167;28;20052;-80
2022/12/05 08:21:09;;;;;;;43.95;21.30;;;6.00;99.90;;;;;;5066277;28;20360;-81
2022/12/05 08:23:36;;;;;;;40.53;21.30;;;6.00;99.90;;;;;;5069577;28;20068;-80
2022/12/05 08:26:11;;;;;;;44.38;21.85;;;6.00;99.90;;;;;;5067396;28;20036;-82
2022/12/05 08:28:37;;;;;;;40.80;21.05;;;6.00;99.90;;;;;;5067967;28;20040;-82
2022/12/05 08:31:09;;;;;;;41.63;21.48;;;6.00;99.90;;;;;;5069821;28;20038;-81
2022/12/05 08:33:35;;;;;;;42.60;21.70;;;6.00;99.90;;;;;;5066892;28;20060;-82
2022/12/05 08:36:02;;;;;;;37.40;21.33;;;6.10;99.90;;;;;;5070153;28;20060;-82
2022/12/05 08:38:28;;;;;;;38.78;21.52;;;6.10;99.90;;;;;;5068006;28;20032;-81
2022/12/05 08:40:53;;;;;;;38.65;21.85;;;6.10;99.90;;;;;;5049292;28;20029;-82
2022/12/05 08:43:19;;;;;;;39.38;21.92;;;6.10;99.90;;;;;;5051682;28;20494;-83
2022/12/05 08:45:52;;;;;;;37.10;20.55;;;6.10;99.90;;;;;;5067736;28;20154;-80
2022/12/05 08:48:17;;;;;;;36.33;21.25;;;6.10;99.90;;;;;;5052157;28;20024;-82
2022/12/05 08:50:43;;;;;;;37.58;20.33;;;6.10;99.90;;;;;;5031627;28;20506;-80
2022/12/05 08:53:09;;;;;;;44.50;23.17;;;6.20;99.90;;;;;;5054386;28;20029;-80
2022/12/05 08:55:35;;;;;;;36.38;20.75;;;6.20;99.90;;;;;;5052904;28;20028;-80
2022/12/05 08:58:00;;;;;;;36.97;20.30;;;6.20;99.90;;;;;;5067666;28;20024;-81
2022/12/05 09:00:26;;;;;;;37.80;23.10;;;6.20;99.90;;;;;;5033274;28;20042;-81
2022/12/05 09:02:52;;;;;;;43.35;22.65;;;6.20;99.90;;;;;;5044485;28;20025;-82
2022/12/05 09:05:17;;;;;;;38.35;21.75;;;6.20;99.90;;;;;;5058144;28;20070;-78
2022/12/05 09:07:44;;;;;;;39.20;21.50;;;6.20;99.90;;;;;;5058331;28;20046;-81
2022/12/05 09:10:09;;;;;;;39.97;21.90;;;6.20;99.90;;;;;;5050392;28;20815;-77
2022/12/05 09:12:36;;;;;;;36.20;20.90;;;6.30;99.90;;;;;;5049053;28;20025;-82
2022/12/05 09:15:04;;;;;;;38.80;20.70;;;6.30;99.90;;;;;;5056585;28;20044;-81
2022/12/05 09:17:30;;;;;;;39.80;21.33;;;6.30;99.90;;;;;;5031293;28;20037;-82
2022/12/05 09:19:56;;;;;;;38.03;21.67;;;6.30;99.90;;;;;;5038740;28;20399;-80
2022/12/05 09:22:21;;;;;;;37.67;21.90;;;6.30;99.90;;;;;;5048759;28;20028;-81
2022/12/05 09:24:47;;;;;;;37.03;21.45;;;6.30;99.90;;;;;;5053241;28;20032;-81
2022/12/05 09:27:13;;;;;;;37.70;20.63;;;6.30;99.90;;;;;;5047496;28;20082;-83
2022/12/05 09:29:39;;;;;;;34.47;20.33;;;6.30;99.90;;;;;;5054399;28;20041;-83
2022/12/05 09:32:04;;;;;;;37.10;21.05;;;6.30;99.90;;;;;;5049249;28;20159;-83
2022/12/05 09:34:30;;;;;;;39.50;21.77;;;6.40;99.90;;;;;;5030393;28;20527;-82
2022/12/05 09:36:56;;;;;;;35.95;20.48;;;6.40;99.90;;;;;;5029558;28;20029;-80
2022/12/05 09:39:22;;;;;;;35.53;19.65;;;6.40;99.90;;;;;;5048576;28;20044;-81
2022/12/05 09:42:22;;;;;;;36.80;20.48;;;6.40;99.90;;;;;;5047489;28;20071;-81
2022/12/05 09:45:08;;;;;;;35.88;19.45;;;6.40;99.90;;;;;;5067430;28;20020;-78
2022/12/05 09:47:48;;;;;;;33.78;20.05;;;6.50;99.90;;;;;;5040438;28;20036;-82
2022/12/05 09:50:32;;;;;;;32.50;19.88;;;6.50;99.90;;;;;;5047351;28;20029;-79
2022/12/05 09:53:24;;;;;;;33.25;19.98;;;6.50;99.90;;;;;;5052025;28;20673;-80
2022/12/05 09:56:08;;;;;;;38.92;20.92;;;6.50;99.90;;;;;;5059998;28;20036;-81
2022/12/05 09:58:47;;;;;;;38.00;20.88;;;6.50;99.90;;;;;;5081896;28;20084;-82
2022/12/05 10:01:41;;;;;;;36.35;20.77;;;6.50;99.90;;;;;;5064075;28;20033;-81
2022/12/05 10:04:25;;;;;;;39.42;21.75;;;6.50;99.90;;;;;;5065497;28;20020;-80
2022/12/05 10:07:11;;;;;;;37.20;20.35;;;6.50;99.90;;;;;;5062384;28;20052;-84
2022/12/05 10:09:58;;;;;;;38.42;20.23;;;6.50;99.90;;;;;;5047809;28;20044;-82
2022/12/05 10:12:30;;;;;;;35.70;19.58;;;6.50;99.90;;;;;;5044022;28;20024;-83
2022/12/05 10:15:17;;;;;;;37.53;19.95;;;6.50;99.90;;;;;;5045789;28;20479;-79
2022/12/05 10:17:51;;;;;;;35.88;19.63;;;6.50;99.90;;;;;;5036796;28;20028;-81
2022/12/05 10:20:42;;;;;;;34.10;20.10;;;6.60;99.90;;;;;;5046643;28;20057;-80
2022/12/05 10:23:18;;;;;;;34.30;18.65;;;6.60;99.90;;;;;;5058063;28;20044;-81
2022/12/05 10:25:44;;;;;;;34.90;19.70;;;6.60;99.90;;;;;;5060183;28;20024;-82
2022/12/05 10:28:16;;;;;;;32.83;18.63;;;6.60;99.90;;;;;;5060157;28;20025;-82
2022/12/05 10:30:44;;;;;;;29.75;18.42;;;6.60;99.90;;;;;;5048496;28;20083;-82
2022/12/05 10:33:19;;;;;;;31.63;17.58;;;6.70;99.90;;;;;;5050204;28;20052;-82
2022/12/05 10:35:45;;;;;;;30.58;18.02;;;6.70;99.90;;;;;;5057859;28;20035;-83
2022/12/05 10:38:30;;;;;;;28.73;17.08;;;6.70;99.90;;;;;;5049283;28;20028;-80
2022/12/05 10:40:59;;;;;;;29.05;16.25;;;6.70;99.90;;;;;;5045995;28;20047;-83
2022/12/05 10:43:27;;;;;;;28.52;16.15;;;6.80;99.90;;;;;;5048229;28;20029;-83
2022/12/05 10:45:54;;;;;;;29.25;16.95;;;6.70;99.90;;;;;;5056960;28;20062;-83
2022/12/05 10:48:21;;;;;;;28.25;17.02;;;6.80;99.90;;;;;;5058711;28;20029;-84
2022/12/05 10:50:50;;;;;;;27.10;16.52;;;6.80;99.90;;;;;;5065466;28;20024;-83
2022/12/05 10:53:19;;;;;;;28.00;16.27;;;6.80;99.90;;;;;;5065965;28;20123;-84
2022/12/05 10:55:46;;;;;;;27.85;15.95;;;6.80;99.90;;;;;;5065024;28;20040;-83
2022/12/05 10:58:24;;;;;;;28.05;15.15;;;6.90;99.90;;;;;;5053568;28;20043;-79
2022/12/05 11:01:06;;;;;;;27.27;16.40;;;6.90;99.90;;;;;;5026376;28;20076;-84
2022/12/05 11:03:40;;;;;;;25.95;15.77;;;7.00;99.90;;;;;;5026003;28;20032;-83
2022/12/05 11:06:25;;;;;;;29.48;16.10;;;7.00;99.90;;;;;;5040552;28;20039;-82
2022/12/05 11:08:56;;;;;;;26.92;15.05;;;7.00;99.90;;;;;;5066775;28;20532;-80
2022/12/05 11:11:28;;;;;;;25.35;14.57;;;7.00;99.90;;;;;;5066066;28;20028;-85
2022/12/05 11:13:59;;;;;;;28.00;15.98;;;7.10;99.90;;;;;;5067308;28;20024;-82
2022/12/05 11:16:32;;;;;;;27.05;15.32;;;7.00;99.90;;;;;;5063450;28;20032;-80
2022/12/05 11:19:21;;;;;;;25.10;14.98;;;7.10;99.90;;;;;;5063137;28;20036;-81
2022/12/05 11:21:48;;;;;;;26.10;14.95;;;7.00;99.90;;;;;;5059878;28;20028;-84
2022/12/05 11:24:35;;;;;;;29.05;16.00;;;7.00;99.90;;;;;;5065893;28;20086;-82
2022/12/05 11:27:21;;;;;;;28.90;16.15;;;7.00;99.90;;;;;;5067051;28;20501;-82
2022/12/05 11:30:13;;;;;;;35.63;19.38;;;7.00;99.90;;;;;;5068966;28;20082;-84
2022/12/05 11:32:38;;;;;;;34.13;18.95;;;7.00;99.90;;;;;;5069199;28;20054;-84
2022/12/05 11:35:10;;;;;;;30.20;17.48;;;7.00;99.90;;;;;;5060970;28;20158;-79
2022/12/05 11:37:43;;;;;;;35.03;18.30;;;7.00;99.90;;;;;;5041169;28;20391;-83
2022/12/05 11:40:25;;;;;;;30.13;16.40;;;7.00;99.90;;;;;;5028796;28;20102;-80
2022/12/05 11:43:16;;;;;;;28.60;15.80;;;7.00;99.90;;;;;;5040611;28;20033;-82
2022/12/05 11:45:50;;;;;;;28.05;16.35;;;7.00;99.90;;;;;;5036456;28;20082;-85
2022/12/05 11:48:34;;;;;;;31.17;16.35;;;7.00;99.90;;;;;;5034292;28;20043;-81
2022/12/05 11:51:03;;;;;;;29.92;16.42;;;7.00;99.90;;;;;;5041364;28;20872;-83
2022/12/05 11:53:44;;;;;;;28.08;16.60;;;7.00;99.90;;;;;;5050945;28;20534;-82
2022/12/05 11:56:28;;;;;;;31.23;17.50;;;7.00;99.90;;;;;;5042117;28;20056;-84
2022/12/05 11:59:33;;;;;;;30.73;16.92;;;7.00;99.90;;;;;;5048873;28;20391;-80
2022/12/05 12:02:05;;;;;;;32.58;16.70;;;7.00;99.90;;;;;;5041535;28;20033;-81
2022/12/05 12:04:42;;;;;;;30.45;16.95;;;7.00;99.90;;;;;;5034055;28;20037;-81
2022/12/05 12:07:16;;;;;;;29.15;17.65;;;7.10;99.90;;;;;;5047997;28;20115;-81
2022/12/05 12:10:06;;;;;;;29.00;16.48;;;7.10;99.90;;;;;;5032820;28;20036;-83
2022/12/05 12:12:34;;;;;;;28.20;17.27;;;7.20;99.90;;;;;;5072373;28;20380;-79
2022/12/05 12:15:06;;;;;;;30.55;17.75;;;7.20;99.90;;;;;;5033107;28;20722;-83
2022/12/05 12:17:43;;;;;;;28.90;17.15;;;7.20;99.90;;;;;;5050112;28;20060;-82
2022/12/05 12:20:35;;;;;;;30.20;17.75;;;7.20;99.90;;;;;;5051110;28;20037;-83
2022/12/05 12:23:16;;;;;;;29.83;17.45;;;7.20;99.90;;;;;;5030411;28;20057;-79
2022/12/05 12:26:04;;;;;;;32.92;17.95;;;7.20;99.90;;;;;;5043530;28;20108;-82
2022/12/05 12:28:45;;;;;;;27.65;17.13;;;7.20;99.90;;;;;;5036105;28;20530;-81
2022/12/05 12:32:00;;;;;;;31.67;18.25;;;7.30;99.90;;;;;;5036809;28;20025;-81
2022/12/05 12:34:44;;;;;;;34.25;16.52;;;7.30;99.90;;;;;;5038442;28;20052;-82
2022/12/05 12:37:31;;;;;;;28.70;15.20;;;7.30;99.90;;;;;;5037508;28;20021;-81
2022/12/05 12:40:11;;;;;;;27.67;15.85;;;7.30;99.90;;;;;;5028745;28;20032;-82
2022/12/05 12:42:48;;;;;;;;;;;7.30;99.90;;;;;;5037876;28;20639;-79
2022/12/05 12:45:44;;;;;;;29.63;15.98;;;7.30;99.90;;;;;;5042274;28;20523;-79
2022/12/05 12:48:29;;;;;;;30.67;16.45;;;7.30;99.90;;;;;;5032571;28;20025;-83
2022/12/05 12:50:58;;;;;;;31.65;17.30;;;7.30;99.90;;;;;;5034682;28;20556;-82
2022/12/05 12:53:29;;;;;;;31.65;16.60;;;7.30;99.90;;;;;;5036085;28;20035;-81
2022/12/05 12:56:17;;;;;;;29.42;16.50;;;7.30;99.90;;;;;;5043091;28;20445;-81
2022/12/05 12:58:53;;;;;;;33.75;17.15;;;7.40;99.90;;;;;;5032714;28;20037;-80
2022/12/05 13:01:30;;;;;;;29.13;16.13;;;7.40;99.90;;;;;;5031132;28;20033;-79
2022/12/05 13:04:11;;;;;;;33.17;16.90;;;7.50;99.90;;;;;;5032290;28;20033;-81
2022/12/05 13:06:58;;;;;;;28.77;15.68;;;7.50;99.90;;;;;;5034305;28;20048;-78
2022/12/05 13:09:26;;;;;;;28.10;15.70;;;7.50;99.90;;;;;;5051329;28;20037;-77